sensor_id;sensor_type;location;lat;lon;timestamp;temperature;humidity
9943;DHT22;5010;45.080;7.634;2023-04-24T00:02:01;21.00;1.00
9943;DHT22;5010;45.080;7.634;2023-04-24T00:04:29;21.00;1.00
9943;DHT22;5010;45.080;7.634;2023-04-24T00:06:57;21.00;1.00
9943;DHT22;5010;45.080;7.634;2023-04-24T00:09:25;21.00;1.00
9943;DHT22;5010;45.080;7.634;2023-04-24T00:11:52;21.00;1.00
9943;DHT22;5010;45.080;7.634;2023-04-24T00:14:19;21.00;1.00
9943;DHT22;5010;45.080;7.634;2023-04-24T00:16:46;21.00;1.00
9943;DHT22;5010;45.080;7.634;2023-04-24T00:19:14;21.00;1.00
9943;DHT22;5010;45.080;7.634;2023-04-24T00:21:42;21.00;1.00
9943;DHT22;5010;45.080;7.634;2023-04-24T00:24:08;21.00;1.00
9943;DHT22;5010;45.080;7.634;2023-04-24T00:26:35;21.00;1.00
9943;DHT22;5010;45.080;7.634;2023-04-24T00:29:02;21.00;1.00
9943;DHT22;5010;45.080;7.634;2023-04-24T00:31:29;21.00;1.00
9943;DHT22;5010;45.080;7.634;2023-04-24T00:33:57;21.00;1.00
9943;DHT22;5010;45.080;7.634;2023-04-24T00:36:25;21.00;1.00
9943;DHT22;5010;45.080;7.634;2023-04-24T00:38:52;21.00;1.00
9943;DHT22;5010;45.080;7.634;2023-04-24T00:41:19;21.00;1.00
9943;DHT22;5010;45.080;7.634;2023-04-24T00:43:47;21.00;1.00
9943;DHT22;5010;45.080;7.634;2023-04-24T00:46:14;21.00;1.00
9943;DHT22;5010;45.080;7.634;2023-04-24T00:48:43;21.00;1.00
9943;DHT22;5010;45.080;7.634;2023-04-24T00:51:10;21.00;1.00
9943;DHT22;5010;45.080;7.634;2023-04-24T00:53:38;21.00;1.00
9943;DHT22;5010;45.080;7.634;2023-04-24T00:56:05;21.00;1.00
9943;DHT22;5010;45.080;7.634;2023-04-24T00:58:32;21.00;1.00
9943;DHT22;5010;45.080;7.634;2023-04-24T01:01:00;21.00;1.00
9943;DHT22;5010;45.080;7.634;2023-04-24T01:03:29;21.00;1.00
9943;DHT22;5010;45.080;7.634;2023-04-24T01:05:57;21.00;1.00
9943;DHT22;5010;45.080;7.634;2023-04-24T01:08:25;21.00;1.00
9943;DHT22;5010;45.080;7.634;2023-04-24T01:10:54;21.00;1.00
9943;DHT22;5010;45.080;7.634;2023-04-24T01:13:21;20.90;1.00
9943;DHT22;5010;45.080;7.634;2023-04-24T01:15:49;21.00;1.00
9943;DHT22;5010;45.080;7.634;2023-04-24T01:18:16;20.90;1.00
9943;DHT22;5010;45.080;7.634;2023-04-24T01:20:43;20.90;1.00
9943;DHT22;5010;45.080;7.634;2023-04-24T01:23:13;20.90;1.00
9943;DHT22;5010;45.080;7.634;2023-04-24T01:25:40;20.90;1.00
9943;DHT22;5010;45.080;7.634;2023-04-24T01:28:08;21.00;1.00
9943;DHT22;5010;45.080;7.634;2023-04-24T01:30:35;20.90;1.00
9943;DHT22;5010;45.080;7.634;2023-04-24T01:33:02;20.90;1.00
9943;DHT22;5010;45.080;7.634;2023-04-24T01:35:29;20.90;1.00
9943;DHT22;5010;45.080;7.634;2023-04-24T01:37:56;20.90;1.00
9943;DHT22;5010;45.080;7.634;2023-04-24T01:40:24;20.90;1.00
9943;DHT22;5010;45.080;7.634;2023-04-24T01:42:51;20.90;1.00
9943;DHT22;5010;45.080;7.634;2023-04-24T01:45:18;20.90;1.00
9943;DHT22;5010;45.080;7.634;2023-04-24T01:47:45;20.90;1.00
9943;DHT22;5010;45.080;7.634;2023-04-24T01:50:14;20.90;1.00
9943;DHT22;5010;45.080;7.634;2023-04-24T01:52:41;20.90;1.00
9943;DHT22;5010;45.080;7.634;2023-04-24T01:55:09;20.90;1.00
9943;DHT22;5010;45.080;7.634;2023-04-24T01:57:38;20.90;1.00
9943;DHT22;5010;45.080;7.634;2023-04-24T02:00:06;20.90;1.00
9943;DHT22;5010;45.080;7.634;2023-04-24T02:02:33;20.90;1.00
9943;DHT22;5010;45.080;7.634;2023-04-24T02:05:00;20.90;1.00
9943;DHT22;5010;45.080;7.634;2023-04-24T02:07:28;20.90;1.00
9943;DHT22;5010;45.080;7.634;2023-04-24T02:09:55;20.90;1.00
9943;DHT22;5010;45.080;7.634;2023-04-24T02:12:22;20.90;1.00
9943;DHT22;5010;45.080;7.634;2023-04-24T02:14:50;20.90;1.00
9943;DHT22;5010;45.080;7.634;2023-04-24T02:17:17;20.90;1.00
9943;DHT22;5010;45.080;7.634;2023-04-24T02:19:44;20.90;1.00
9943;DHT22;5010;45.080;7.634;2023-04-24T02:22:11;20.90;1.00
9943;DHT22;5010;45.080;7.634;2023-04-24T02:24:38;20.80;1.00
9943;DHT22;5010;45.080;7.634;2023-04-24T02:27:05;20.90;1.00
9943;DHT22;5010;45.080;7.634;2023-04-24T02:29:32;20.90;1.00
9943;DHT22;5010;45.080;7.634;2023-04-24T02:32:00;20.90;1.00
9943;DHT22;5010;45.080;7.634;2023-04-24T02:34:27;20.80;1.00
9943;DHT22;5010;45.080;7.634;2023-04-24T02:36:54;20.80;1.00
9943;DHT22;5010;45.080;7.634;2023-04-24T02:39:21;20.90;1.00
9943;DHT22;5010;45.080;7.634;2023-04-24T02:41:48;20.90;1.00
9943;DHT22;5010;45.080;7.634;2023-04-24T02:44:15;20.90;1.00
9943;DHT22;5010;45.080;7.634;2023-04-24T02:46:42;20.90;1.00
9943;DHT22;5010;45.080;7.634;2023-04-24T02:49:11;20.80;1.00
9943;DHT22;5010;45.080;7.634;2023-04-24T02:51:38;20.80;1.00
9943;DHT22;5010;45.080;7.634;2023-04-24T02:54:07;20.80;1.00
9943;DHT22;5010;45.080;7.634;2023-04-24T02:56:34;20.80;1.00
9943;DHT22;5010;45.080;7.634;2023-04-24T02:59:01;20.80;1.00
9943;DHT22;5010;45.080;7.634;2023-04-24T03:01:28;20.80;1.00
9943;DHT22;5010;45.080;7.634;2023-04-24T03:03:55;20.80;1.00
9943;DHT22;5010;45.080;7.634;2023-04-24T03:06:23;20.80;1.00
9943;DHT22;5010;45.080;7.634;2023-04-24T03:08:50;20.80;1.00
9943;DHT22;5010;45.080;7.634;2023-04-24T03:11:17;20.80;1.00
9943;DHT22;5010;45.080;7.634;2023-04-24T03:13:43;20.80;1.00
9943;DHT22;5010;45.080;7.634;2023-04-24T03:16:10;20.80;1.00
9943;DHT22;5010;45.080;7.634;2023-04-24T03:18:37;20.80;1.00
9943;DHT22;5010;45.080;7.634;2023-04-24T03:21:04;20.80;1.00
9943;DHT22;5010;45.080;7.634;2023-04-24T03:23:32;20.80;1.00
9943;DHT22;5010;45.080;7.634;2023-04-24T03:25:59;20.80;1.00
9943;DHT22;5010;45.080;7.634;2023-04-24T03:28:27;20.80;1.00
9943;DHT22;5010;45.080;7.634;2023-04-24T03:30:54;20.80;1.00
9943;DHT22;5010;45.080;7.634;2023-04-24T03:33:21;20.80;1.00
9943;DHT22;5010;45.080;7.634;2023-04-24T03:35:48;20.80;1.00
9943;DHT22;5010;45.080;7.634;2023-04-24T03:38:15;20.80;1.00
9943;DHT22;5010;45.080;7.634;2023-04-24T03:40:43;20.80;1.00
9943;DHT22;5010;45.080;7.634;2023-04-24T03:43:10;20.80;1.00
9943;DHT22;5010;45.080;7.634;2023-04-24T03:45:36;20.80;1.00
9943;DHT22;5010;45.080;7.634;2023-04-24T03:48:04;20.80;1.00
9943;DHT22;5010;45.080;7.634;2023-04-24T03:50:30;20.80;1.00
9943;DHT22;5010;45.080;7.634;2023-04-24T03:52:57;20.80;1.00
9943;DHT22;5010;45.080;7.634;2023-04-24T03:55:24;20.80;1.00
9943;DHT22;5010;45.080;7.634;2023-04-24T03:57:52;20.80;1.00
9943;DHT22;5010;45.080;7.634;2023-04-24T04:00:19;20.70;1.00
9943;DHT22;5010;45.080;7.634;2023-04-24T04:02:46;20.70;1.00
9943;DHT22;5010;45.080;7.634;2023-04-24T04:05:13;20.80;1.00
9943;DHT22;5010;45.080;7.634;2023-04-24T04:07:40;20.80;1.00
9943;DHT22;5010;45.080;7.634;2023-04-24T04:10:07;20.80;1.00
9943;DHT22;5010;45.080;7.634;2023-04-24T04:12:34;20.80;1.00
9943;DHT22;5010;45.080;7.634;2023-04-24T04:15:03;20.70;1.00
9943;DHT22;5010;45.080;7.634;2023-04-24T04:17:31;20.70;1.00
9943;DHT22;5010;45.080;7.634;2023-04-24T04:19:58;20.70;1.00
9943;DHT22;5010;45.080;7.634;2023-04-24T04:22:25;20.70;1.00
9943;DHT22;5010;45.080;7.634;2023-04-24T04:24:52;20.80;1.00
9943;DHT22;5010;45.080;7.634;2023-04-24T04:27:19;20.70;1.00
9943;DHT22;5010;45.080;7.634;2023-04-24T04:29:46;20.70;1.00
9943;DHT22;5010;45.080;7.634;2023-04-24T04:32:15;20.80;1.00
9943;DHT22;5010;45.080;7.634;2023-04-24T04:34:42;20.80;1.00
9943;DHT22;5010;45.080;7.634;2023-04-24T04:37:10;20.80;1.00
9943;DHT22;5010;45.080;7.634;2023-04-24T04:39:38;20.70;1.00
9943;DHT22;5010;45.080;7.634;2023-04-24T04:42:05;20.70;1.00
9943;DHT22;5010;45.080;7.634;2023-04-24T04:44:32;20.70;1.00
9943;DHT22;5010;45.080;7.634;2023-04-24T04:47:01;20.80;1.00
9943;DHT22;5010;45.080;7.634;2023-04-24T04:49:32;20.70;1.00
9943;DHT22;5010;45.080;7.634;2023-04-24T04:51:59;20.70;1.00
9943;DHT22;5010;45.080;7.634;2023-04-24T04:54:26;20.70;1.00
9943;DHT22;5010;45.080;7.634;2023-04-24T04:56:53;20.70;1.00
9943;DHT22;5010;45.080;7.634;2023-04-24T04:59:20;20.70;1.00
9943;DHT22;5010;45.080;7.634;2023-04-24T05:01:47;20.70;1.00
9943;DHT22;5010;45.080;7.634;2023-04-24T05:04:14;20.70;1.00
9943;DHT22;5010;45.080;7.634;2023-04-24T05:06:42;20.70;1.00
9943;DHT22;5010;45.080;7.634;2023-04-24T05:09:09;20.70;1.00
9943;DHT22;5010;45.080;7.634;2023-04-24T05:11:36;20.70;1.00
9943;DHT22;5010;45.080;7.634;2023-04-24T05:14:02;20.70;1.00
9943;DHT22;5010;45.080;7.634;2023-04-24T05:16:29;20.70;1.00
9943;DHT22;5010;45.080;7.634;2023-04-24T05:18:57;20.70;1.00
9943;DHT22;5010;45.080;7.634;2023-04-24T05:21:24;20.70;1.00
9943;DHT22;5010;45.080;7.634;2023-04-24T05:23:52;20.70;1.00
9943;DHT22;5010;45.080;7.634;2023-04-24T05:26:19;20.70;1.00
9943;DHT22;5010;45.080;7.634;2023-04-24T05:28:46;20.70;1.00
9943;DHT22;5010;45.080;7.634;2023-04-24T05:31:12;20.70;1.00
9943;DHT22;5010;45.080;7.634;2023-04-24T05:33:39;20.70;1.00
9943;DHT22;5010;45.080;7.634;2023-04-24T05:36:06;20.70;1.00
9943;DHT22;5010;45.080;7.634;2023-04-24T05:38:33;20.70;1.00
9943;DHT22;5010;45.080;7.634;2023-04-24T05:41:02;20.70;1.00
9943;DHT22;5010;45.080;7.634;2023-04-24T05:43:28;20.70;1.00
9943;DHT22;5010;45.080;7.634;2023-04-24T05:45:55;20.70;1.00
9943;DHT22;5010;45.080;7.634;2023-04-24T05:48:22;20.70;1.00
9943;DHT22;5010;45.080;7.634;2023-04-24T05:50:49;20.70;1.00
9943;DHT22;5010;45.080;7.634;2023-04-24T05:53:17;20.70;1.00
9943;DHT22;5010;45.080;7.634;2023-04-24T05:55:44;20.70;1.00
9943;DHT22;5010;45.080;7.634;2023-04-24T05:58:13;20.70;1.00
9943;DHT22;5010;45.080;7.634;2023-04-24T06:00:40;20.70;1.00
9943;DHT22;5010;45.080;7.634;2023-04-24T06:03:08;20.70;1.00
9943;DHT22;5010;45.080;7.634;2023-04-24T06:05:35;20.70;1.00
9943;DHT22;5010;45.080;7.634;2023-04-24T06:08:02;20.70;1.00
9943;DHT22;5010;45.080;7.634;2023-04-24T06:10:28;20.70;1.00
9943;DHT22;5010;45.080;7.634;2023-04-24T06:12:55;20.70;1.00
9943;DHT22;5010;45.080;7.634;2023-04-24T06:15:28;20.70;1.00
9943;DHT22;5010;45.080;7.634;2023-04-24T06:17:55;20.70;1.00
9943;DHT22;5010;45.080;7.634;2023-04-24T06:20:22;20.70;1.00
9943;DHT22;5010;45.080;7.634;2023-04-24T06:22:49;20.70;1.00
9943;DHT22;5010;45.080;7.634;2023-04-24T06:25:17;20.70;1.00
9943;DHT22;5010;45.080;7.634;2023-04-24T06:27:44;20.70;1.00
9943;DHT22;5010;45.080;7.634;2023-04-24T06:30:12;20.70;1.00
9943;DHT22;5010;45.080;7.634;2023-04-24T06:32:40;20.70;1.00
9943;DHT22;5010;45.080;7.634;2023-04-24T06:35:07;20.70;1.00
9943;DHT22;5010;45.080;7.634;2023-04-24T06:37:35;20.70;1.00
9943;DHT22;5010;45.080;7.634;2023-04-24T06:40:02;20.70;1.00
9943;DHT22;5010;45.080;7.634;2023-04-24T06:42:30;20.70;1.00
9943;DHT22;5010;45.080;7.634;2023-04-24T06:44:56;20.70;1.00
9943;DHT22;5010;45.080;7.634;2023-04-24T06:47:23;20.70;1.00
9943;DHT22;5010;45.080;7.634;2023-04-24T06:49:51;20.70;1.00
9943;DHT22;5010;45.080;7.634;2023-04-24T06:52:19;20.70;1.00
9943;DHT22;5010;45.080;7.634;2023-04-24T06:54:46;20.70;1.00
9943;DHT22;5010;45.080;7.634;2023-04-24T06:57:13;20.70;1.00
9943;DHT22;5010;45.080;7.634;2023-04-24T06:59:41;20.70;1.00
9943;DHT22;5010;45.080;7.634;2023-04-24T07:02:08;20.70;1.00
9943;DHT22;5010;45.080;7.634;2023-04-24T07:04:35;20.70;1.00
9943;DHT22;5010;45.080;7.634;2023-04-24T07:07:03;20.80;1.00
9943;DHT22;5010;45.080;7.634;2023-04-24T07:09:32;20.70;1.00
9943;DHT22;5010;45.080;7.634;2023-04-24T07:12:00;20.70;1.00
9943;DHT22;5010;45.080;7.634;2023-04-24T07:14:27;20.70;1.00
9943;DHT22;5010;45.080;7.634;2023-04-24T07:16:54;20.70;1.00
9943;DHT22;5010;45.080;7.634;2023-04-24T07:19:22;20.70;1.00
9943;DHT22;5010;45.080;7.634;2023-04-24T07:21:49;20.80;1.00
9943;DHT22;5010;45.080;7.634;2023-04-24T07:24:18;20.80;1.00
9943;DHT22;5010;45.080;7.634;2023-04-24T07:26:44;20.70;1.00
9943;DHT22;5010;45.080;7.634;2023-04-24T07:29:12;20.80;1.00
9943;DHT22;5010;45.080;7.634;2023-04-24T07:31:39;20.70;1.00
9943;DHT22;5010;45.080;7.634;2023-04-24T07:34:07;20.70;1.00
9943;DHT22;5010;45.080;7.634;2023-04-24T07:36:34;20.70;1.00
9943;DHT22;5010;45.080;7.634;2023-04-24T07:39:00;20.70;1.00
9943;DHT22;5010;45.080;7.634;2023-04-24T07:41:29;20.80;1.00
9943;DHT22;5010;45.080;7.634;2023-04-24T07:43:56;20.70;1.00
9943;DHT22;5010;45.080;7.634;2023-04-24T07:46:23;20.70;1.00
9943;DHT22;5010;45.080;7.634;2023-04-24T07:48:50;20.70;1.00
9943;DHT22;5010;45.080;7.634;2023-04-24T07:51:17;20.70;1.00
9943;DHT22;5010;45.080;7.634;2023-04-24T07:53:44;20.80;1.00
9943;DHT22;5010;45.080;7.634;2023-04-24T07:56:11;20.70;1.00
9943;DHT22;5010;45.080;7.634;2023-04-24T07:58:39;20.70;1.00
9943;DHT22;5010;45.080;7.634;2023-04-24T08:01:06;20.80;1.00
9943;DHT22;5010;45.080;7.634;2023-04-24T08:03:33;20.70;1.00
9943;DHT22;5010;45.080;7.634;2023-04-24T08:06:00;20.70;1.00
9943;DHT22;5010;45.080;7.634;2023-04-24T08:08:27;20.80;1.00
9943;DHT22;5010;45.080;7.634;2023-04-24T08:10:54;20.70;1.00
9943;DHT22;5010;45.080;7.634;2023-04-24T08:13:21;20.80;1.00
9943;DHT22;5010;45.080;7.634;2023-04-24T08:15:50;20.70;1.00
9943;DHT22;5010;45.080;7.634;2023-04-24T08:18:16;20.80;1.00
9943;DHT22;5010;45.080;7.634;2023-04-24T08:20:43;20.80;1.00
9943;DHT22;5010;45.080;7.634;2023-04-24T08:23:10;20.80;1.00
9943;DHT22;5010;45.080;7.634;2023-04-24T08:25:37;20.80;1.00
9943;DHT22;5010;45.080;7.634;2023-04-24T08:28:06;20.70;1.00
9943;DHT22;5010;45.080;7.634;2023-04-24T08:30:35;20.80;1.00
9943;DHT22;5010;45.080;7.634;2023-04-24T08:33:03;20.80;1.00
9943;DHT22;5010;45.080;7.634;2023-04-24T08:35:30;20.80;1.00
9943;DHT22;5010;45.080;7.634;2023-04-24T08:37:57;20.80;1.00
9943;DHT22;5010;45.080;7.634;2023-04-24T08:40:28;20.80;1.00
9943;DHT22;5010;45.080;7.634;2023-04-24T08:42:55;20.80;1.00
9943;DHT22;5010;45.080;7.634;2023-04-24T08:45:24;20.80;1.00
9943;DHT22;5010;45.080;7.634;2023-04-24T08:47:53;20.70;1.00
9943;DHT22;5010;45.080;7.634;2023-04-24T08:50:21;20.80;1.00
9943;DHT22;5010;45.080;7.634;2023-04-24T08:52:50;20.70;1.00
9943;DHT22;5010;45.080;7.634;2023-04-24T08:55:19;20.80;1.00
9943;DHT22;5010;45.080;7.634;2023-04-24T08:57:50;20.80;1.00
9943;DHT22;5010;45.080;7.634;2023-04-24T09:00:19;20.70;1.00
9943;DHT22;5010;45.080;7.634;2023-04-24T09:02:48;20.70;1.00
9943;DHT22;5010;45.080;7.634;2023-04-24T09:05:16;20.80;1.00
9943;DHT22;5010;45.080;7.634;2023-04-24T09:07:50;20.80;1.00
9943;DHT22;5010;45.080;7.634;2023-04-24T09:10:19;20.70;1.00
9943;DHT22;5010;45.080;7.634;2023-04-24T09:12:46;20.80;1.00
9943;DHT22;5010;45.080;7.634;2023-04-24T09:15:13;20.70;1.00
9943;DHT22;5010;45.080;7.634;2023-04-24T09:17:40;20.70;1.00
9943;DHT22;5010;45.080;7.634;2023-04-24T09:20:08;20.80;1.00
9943;DHT22;5010;45.080;7.634;2023-04-24T09:22:35;20.80;1.00
9943;DHT22;5010;45.080;7.634;2023-04-24T09:25:05;20.80;1.00
9943;DHT22;5010;45.080;7.634;2023-04-24T09:27:33;20.80;1.00
9943;DHT22;5010;45.080;7.634;2023-04-24T09:30:01;20.80;1.00
9943;DHT22;5010;45.080;7.634;2023-04-24T09:32:28;20.80;1.00
9943;DHT22;5010;45.080;7.634;2023-04-24T09:35:09;20.80;1.00
9943;DHT22;5010;45.080;7.634;2023-04-24T09:37:37;20.80;1.00
9943;DHT22;5010;45.080;7.634;2023-04-24T09:40:14;20.80;1.00
9943;DHT22;5010;45.080;7.634;2023-04-24T09:42:44;20.80;1.00
9943;DHT22;5010;45.080;7.634;2023-04-24T09:45:11;20.80;1.00
9943;DHT22;5010;45.080;7.634;2023-04-24T09:47:39;20.80;1.00
9943;DHT22;5010;45.080;7.634;2023-04-24T09:50:10;20.80;1.00
9943;DHT22;5010;45.080;7.634;2023-04-24T09:52:40;20.80;1.00
9943;DHT22;5010;45.080;7.634;2023-04-24T09:55:13;20.80;1.00
9943;DHT22;5010;45.080;7.634;2023-04-24T09:57:52;20.80;1.00
9943;DHT22;5010;45.080;7.634;2023-04-24T10:00:23;20.80;1.00
9943;DHT22;5010;45.080;7.634;2023-04-24T10:02:54;20.80;1.00
9943;DHT22;5010;45.080;7.634;2023-04-24T10:05:24;20.80;1.00
9943;DHT22;5010;45.080;7.634;2023-04-24T10:07:52;20.80;1.00
9943;DHT22;5010;45.080;7.634;2023-04-24T10:10:24;20.80;1.00
9943;DHT22;5010;45.080;7.634;2023-04-24T10:12:51;20.80;1.00
9943;DHT22;5010;45.080;7.634;2023-04-24T10:15:19;20.80;1.00
9943;DHT22;5010;45.080;7.634;2023-04-24T10:17:48;20.80;1.00
9943;DHT22;5010;45.080;7.634;2023-04-24T10:20:18;20.80;1.00
9943;DHT22;5010;45.080;7.634;2023-04-24T10:22:47;20.80;1.00
9943;DHT22;5010;45.080;7.634;2023-04-24T10:25:16;20.80;1.00
9943;DHT22;5010;45.080;7.634;2023-04-24T10:27:45;20.90;1.00
9943;DHT22;5010;45.080;7.634;2023-04-24T10:30:13;20.90;1.00
9943;DHT22;5010;45.080;7.634;2023-04-24T10:32:40;20.90;1.00
9943;DHT22;5010;45.080;7.634;2023-04-24T10:35:08;20.90;1.00
9943;DHT22;5010;45.080;7.634;2023-04-24T10:37:37;20.90;1.00
9943;DHT22;5010;45.080;7.634;2023-04-24T10:40:05;20.90;1.00
9943;DHT22;5010;45.080;7.634;2023-04-24T10:42:33;20.90;1.00
9943;DHT22;5010;45.080;7.634;2023-04-24T10:45:06;20.90;1.00
9943;DHT22;5010;45.080;7.634;2023-04-24T10:47:40;20.90;1.00
9943;DHT22;5010;45.080;7.634;2023-04-24T10:50:09;21.00;1.00
9943;DHT22;5010;45.080;7.634;2023-04-24T10:52:46;20.90;1.00
9943;DHT22;5010;45.080;7.634;2023-04-24T10:55:14;21.00;1.00
9943;DHT22;5010;45.080;7.634;2023-04-24T10:58:01;21.00;1.00
9943;DHT22;5010;45.080;7.634;2023-04-24T11:00:30;21.00;1.00
9943;DHT22;5010;45.080;7.634;2023-04-24T11:02:57;21.00;1.00
9943;DHT22;5010;45.080;7.634;2023-04-24T11:08:31;21.00;1.00
9943;DHT22;5010;45.080;7.634;2023-04-24T11:11:09;21.00;1.00
9943;DHT22;5010;45.080;7.634;2023-04-24T11:14:05;21.00;1.00
9943;DHT22;5010;45.080;7.634;2023-04-24T11:16:35;21.00;1.00
9943;DHT22;5010;45.080;7.634;2023-04-24T11:19:05;21.00;1.00
9943;DHT22;5010;45.080;7.634;2023-04-24T11:21:39;21.10;1.00
9943;DHT22;5010;45.080;7.634;2023-04-24T11:24:27;21.10;1.00
9943;DHT22;5010;45.080;7.634;2023-04-24T11:26:56;21.10;1.00
9943;DHT22;5010;45.080;7.634;2023-04-24T11:29:38;21.10;1.00
9943;DHT22;5010;45.080;7.634;2023-04-24T11:32:16;21.10;1.00
9943;DHT22;5010;45.080;7.634;2023-04-24T11:34:46;21.10;1.00
9943;DHT22;5010;45.080;7.634;2023-04-24T11:37:13;21.20;1.00
9943;DHT22;5010;45.080;7.634;2023-04-24T11:39:40;21.20;1.00
9943;DHT22;5010;45.080;7.634;2023-04-24T11:42:07;21.20;1.00
9943;DHT22;5010;45.080;7.634;2023-04-24T11:44:35;21.20;1.00
9943;DHT22;5010;45.080;7.634;2023-04-24T11:47:03;21.30;1.00
9943;DHT22;5010;45.080;7.634;2023-04-24T11:49:31;21.30;1.00
9943;DHT22;5010;45.080;7.634;2023-04-24T11:51:58;21.30;1.00
9943;DHT22;5010;45.080;7.634;2023-04-24T11:54:26;21.30;1.00
9943;DHT22;5010;45.080;7.634;2023-04-24T11:56:53;21.30;1.00
9943;DHT22;5010;45.080;7.634;2023-04-24T11:59:19;21.40;1.00
9943;DHT22;5010;45.080;7.634;2023-04-24T12:01:47;21.40;1.00
9943;DHT22;5010;45.080;7.634;2023-04-24T12:04:14;21.40;1.00
9943;DHT22;5010;45.080;7.634;2023-04-24T12:07:00;21.40;1.00
9943;DHT22;5010;45.080;7.634;2023-04-24T12:09:27;21.50;1.00
9943;DHT22;5010;45.080;7.634;2023-04-24T12:11:55;21.50;1.00
9943;DHT22;5010;45.080;7.634;2023-04-24T12:14:22;21.50;1.00
9943;DHT22;5010;45.080;7.634;2023-04-24T12:16:50;21.50;1.00
9943;DHT22;5010;45.080;7.634;2023-04-24T12:19:20;21.60;1.00
9943;DHT22;5010;45.080;7.634;2023-04-24T12:22:00;21.60;1.00
9943;DHT22;5010;45.080;7.634;2023-04-24T12:24:28;21.60;1.00
9943;DHT22;5010;45.080;7.634;2023-04-24T12:26:56;21.60;1.00
9943;DHT22;5010;45.080;7.634;2023-04-24T12:29:23;21.60;1.00
9943;DHT22;5010;45.080;7.634;2023-04-24T12:31:50;21.60;1.00
9943;DHT22;5010;45.080;7.634;2023-04-24T12:34:18;21.70;1.00
9943;DHT22;5010;45.080;7.634;2023-04-24T12:36:46;21.70;1.00
9943;DHT22;5010;45.080;7.634;2023-04-24T12:39:18;21.70;1.00
9943;DHT22;5010;45.080;7.634;2023-04-24T12:42:00;21.70;1.00
9943;DHT22;5010;45.080;7.634;2023-04-24T12:44:31;21.80;1.00
9943;DHT22;5010;45.080;7.634;2023-04-24T12:46:59;21.80;1.00
9943;DHT22;5010;45.080;7.634;2023-04-24T12:49:27;21.80;1.00
9943;DHT22;5010;45.080;7.634;2023-04-24T12:51:54;21.80;1.00
9943;DHT22;5010;45.080;7.634;2023-04-24T12:54:22;21.80;1.00
9943;DHT22;5010;45.080;7.634;2023-04-24T12:56:49;21.80;1.00
9943;DHT22;5010;45.080;7.634;2023-04-24T12:59:16;21.80;1.00
9943;DHT22;5010;45.080;7.634;2023-04-24T13:01:43;21.80;1.00
9943;DHT22;5010;45.080;7.634;2023-04-24T13:04:10;21.80;1.00
9943;DHT22;5010;45.080;7.634;2023-04-24T13:06:37;21.80;1.00
9943;DHT22;5010;45.080;7.634;2023-04-24T13:09:04;21.80;1.00
9943;DHT22;5010;45.080;7.634;2023-04-24T13:11:32;21.80;1.00
9943;DHT22;5010;45.080;7.634;2023-04-24T13:13:59;21.90;1.00
9943;DHT22;5010;45.080;7.634;2023-04-24T13:16:26;21.90;1.00
9943;DHT22;5010;45.080;7.634;2023-04-24T13:18:53;21.90;1.00
9943;DHT22;5010;45.080;7.634;2023-04-24T13:21:21;21.90;1.00
9943;DHT22;5010;45.080;7.634;2023-04-24T13:23:47;21.90;1.00
9943;DHT22;5010;45.080;7.634;2023-04-24T13:26:14;21.90;1.00
9943;DHT22;5010;45.080;7.634;2023-04-24T13:28:43;21.90;1.00
9943;DHT22;5010;45.080;7.634;2023-04-24T13:31:10;21.90;1.00
9943;DHT22;5010;45.080;7.634;2023-04-24T13:33:37;21.90;1.00
9943;DHT22;5010;45.080;7.634;2023-04-24T13:36:03;21.90;1.00
9943;DHT22;5010;45.080;7.634;2023-04-24T13:38:30;21.90;1.00
9943;DHT22;5010;45.080;7.634;2023-04-24T13:40:57;21.90;1.00
9943;DHT22;5010;45.080;7.634;2023-04-24T13:43:24;21.90;1.00
9943;DHT22;5010;45.080;7.634;2023-04-24T13:45:52;21.90;1.00
9943;DHT22;5010;45.080;7.634;2023-04-24T13:48:19;22.00;1.00
9943;DHT22;5010;45.080;7.634;2023-04-24T13:50:46;22.00;1.00
9943;DHT22;5010;45.080;7.634;2023-04-24T13:53:15;22.00;1.00
9943;DHT22;5010;45.080;7.634;2023-04-24T13:55:41;21.90;1.00
9943;DHT22;5010;45.080;7.634;2023-04-24T13:58:08;21.90;1.00
9943;DHT22;5010;45.080;7.634;2023-04-24T14:00:36;21.90;1.00
9943;DHT22;5010;45.080;7.634;2023-04-24T14:03:04;22.00;1.00
9943;DHT22;5010;45.080;7.634;2023-04-24T14:05:31;22.00;1.00
9943;DHT22;5010;45.080;7.634;2023-04-24T14:07:58;21.90;1.00
9943;DHT22;5010;45.080;7.634;2023-04-24T14:10:25;21.90;1.00
9943;DHT22;5010;45.080;7.634;2023-04-24T14:12:52;22.00;1.00
9943;DHT22;5010;45.080;7.634;2023-04-24T14:15:19;21.90;1.00
9943;DHT22;5010;45.080;7.634;2023-04-24T14:17:47;21.90;1.00
9943;DHT22;5010;45.080;7.634;2023-04-24T14:20:15;21.90;1.00
9943;DHT22;5010;45.080;7.634;2023-04-24T14:22:42;21.90;1.00
9943;DHT22;5010;45.080;7.634;2023-04-24T14:25:09;21.90;1.00
9943;DHT22;5010;45.080;7.634;2023-04-24T14:27:37;21.90;1.00
9943;DHT22;5010;45.080;7.634;2023-04-24T14:30:05;21.90;1.00
9943;DHT22;5010;45.080;7.634;2023-04-24T14:32:32;21.90;1.00
9943;DHT22;5010;45.080;7.634;2023-04-24T14:34:58;21.90;1.00
9943;DHT22;5010;45.080;7.634;2023-04-24T14:37:27;21.90;1.00
9943;DHT22;5010;45.080;7.634;2023-04-24T14:39:54;21.90;1.00
9943;DHT22;5010;45.080;7.634;2023-04-24T14:42:20;21.90;1.00
9943;DHT22;5010;45.080;7.634;2023-04-24T14:44:47;21.90;1.00
9943;DHT22;5010;45.080;7.634;2023-04-24T14:47:14;22.00;1.00
9943;DHT22;5010;45.080;7.634;2023-04-24T14:49:42;21.90;1.00
9943;DHT22;5010;45.080;7.634;2023-04-24T14:52:11;21.90;1.00
9943;DHT22;5010;45.080;7.634;2023-04-24T14:54:39;21.90;1.00
9943;DHT22;5010;45.080;7.634;2023-04-24T14:57:06;21.90;1.00
9943;DHT22;5010;45.080;7.634;2023-04-24T14:59:34;21.90;1.00
9943;DHT22;5010;45.080;7.634;2023-04-24T15:02:00;21.90;1.00
9943;DHT22;5010;45.080;7.634;2023-04-24T15:04:28;21.90;1.00
9943;DHT22;5010;45.080;7.634;2023-04-24T15:06:56;21.90;1.00
9943;DHT22;5010;45.080;7.634;2023-04-24T15:09:24;21.90;1.00
9943;DHT22;5010;45.080;7.634;2023-04-24T15:11:53;21.90;1.00
9943;DHT22;5010;45.080;7.634;2023-04-24T15:14:20;21.90;1.00
9943;DHT22;5010;45.080;7.634;2023-04-24T15:16:47;21.90;1.00
9943;DHT22;5010;45.080;7.634;2023-04-24T15:19:14;21.90;1.00
9943;DHT22;5010;45.080;7.634;2023-04-24T15:21:41;21.80;1.00
9943;DHT22;5010;45.080;7.634;2023-04-24T15:24:10;21.80;1.00
9943;DHT22;5010;45.080;7.634;2023-04-24T15:26:36;21.80;1.00
9943;DHT22;5010;45.080;7.634;2023-04-24T15:29:05;21.80;1.00
9943;DHT22;5010;45.080;7.634;2023-04-24T15:31:31;21.80;1.00
9943;DHT22;5010;45.080;7.634;2023-04-24T15:33:58;21.80;1.00
9943;DHT22;5010;45.080;7.634;2023-04-24T15:36:25;21.70;1.00
9943;DHT22;5010;45.080;7.634;2023-04-24T15:38:52;21.80;1.00
9943;DHT22;5010;45.080;7.634;2023-04-24T15:41:19;21.70;1.00
9943;DHT22;5010;45.080;7.634;2023-04-24T15:43:46;21.70;1.00
9943;DHT22;5010;45.080;7.634;2023-04-24T15:46:15;21.70;1.00
9943;DHT22;5010;45.080;7.634;2023-04-24T15:48:42;21.70;1.00
9943;DHT22;5010;45.080;7.634;2023-04-24T15:51:09;21.70;1.00
9943;DHT22;5010;45.080;7.634;2023-04-24T15:53:36;21.70;1.00
9943;DHT22;5010;45.080;7.634;2023-04-24T15:56:03;21.70;1.00
9943;DHT22;5010;45.080;7.634;2023-04-24T15:58:30;21.60;1.00
9943;DHT22;5010;45.080;7.634;2023-04-24T16:00:57;21.70;1.00
9943;DHT22;5010;45.080;7.634;2023-04-24T16:03:25;21.60;1.00
9943;DHT22;5010;45.080;7.634;2023-04-24T16:05:53;21.60;1.00
9943;DHT22;5010;45.080;7.634;2023-04-24T16:08:19;21.60;1.00
9943;DHT22;5010;45.080;7.634;2023-04-24T16:10:47;21.60;1.00
9943;DHT22;5010;45.080;7.634;2023-04-24T16:13:14;21.60;1.00
9943;DHT22;5010;45.080;7.634;2023-04-24T16:15:43;21.60;1.00
9943;DHT22;5010;45.080;7.634;2023-04-24T16:18:09;21.60;1.00
9943;DHT22;5010;45.080;7.634;2023-04-24T16:20:38;21.60;1.00
9943;DHT22;5010;45.080;7.634;2023-04-24T16:23:05;21.60;1.00
9943;DHT22;5010;45.080;7.634;2023-04-24T16:25:32;21.60;1.00